Ship Status Report: callsign BAREU11

sailwx.info

Track history (hours):
 
Tides and Currents Weather Stations Pressure Air Temp Water Temp Dewpoint Dewpoint Depression Visibility Wind Speed Wind Dir Waves Ship Positions

Callsign BAREU11 (name unknown)

Last reported at 2014-Jul-25 15:00 UTC. Time now 2014-Jul-25 16:08 UTC.
Position S 18°48' W 075°36'.

Barometer 1018.3 mb

Date/timePositionNaut miles runAvg speedWind from/ knotsBaromVisibWave heightAir tempDewpointWater temp
2014-Jul-25 15:00S 18°48' W 075°36'1918.9 1018.3
2014-Jul-25 14:00S 18°30' W 075°42'1818.0 1018.1
2014-Jul-25 13:00S 18°12' W 075°42'1918.9 1017.1
2014-Jul-25 12:00S 17°54' W 075°48'1918.9 1016.0
2014-Jul-25 11:00S 17°36' W 075°54'1918.9 1015.0
2014-Jul-25 10:00S 17°18' W 076°00'2524.7 1013.9
2014-Jul-25 09:00S 16°54' W 076°06'1918.9 1013.4
2014-Jul-25 08:00S 16°36' W 076°12'1918.9 1013.8
2014-Jul-25 07:00S 16°18' W 076°18'3618.2 1014.2
2014-Jul-25 05:00S 15°42' W 076°24'1918.9 1013.9
2014-Jul-25 04:00S 15°24' W 076°30'2524.7 1014.3
2014-Jul-25 03:00S 15°00' W 076°36'1818.0 1014.1
2014-Jul-25 02:00S 14°42' W 076°36'1918.9 1013.5
2014-Jul-25 01:00S 14°24' W 076°42'1918.9 1012.6
2014-Jul-25 00:00S 14°06' W 076°48'1918.9 1011.9
2014-Jul-24 23:00S 13°48' W 076°54'1918.9 1011.9
2014-Jul-24 22:00S 13°30' W 077°00'1918.9 1011.3
2014-Jul-24 21:00S 13°12' W 077°06'1818.0 1010.9
2014-Jul-24 20:00S 12°54' W 077°06'2524.7 1011.4
2014-Jul-24 19:00S 12°30' W 077°12'1918.9 1012.1
2014-Jul-24 18:00S 12°12' W 077°18'1313.4 1012.4
2014-Jul-24 17:00S 12°00' W 077°12'6 0.4 1013.6
2014-Jul-24 03:00S 12°00' W 077°06'0 0.0 1014.8
2014-Jul-23 22:00S 12°00' W 077°06'6 0.2 1013.1
2014-Jul-22 20:00S 12°00' W 077°12'6 5.9 1013.3
2014-Jul-22 19:00S 12°00' W 077°18'4615.4 1013.5
2014-Jul-22 16:00S 11°30' W 077°54'1716.8 1015.6
2014-Jul-22 15:00S 11°18' W 078°06'1313.4 1015.8
2014-Jul-22 14:00S 11°06' W 078°12'2221.5 1015.4
2014-Jul-22 13:00S 10°48' W 078°24'3517.4 1014.4
2014-Jul-22 11:00S 10°18' W 078°42'1313.4 1012.9
2014-Jul-22 10:00S 10°06' W 078°48'1716.8 1012.4
2014-Jul-22 09:00S 09°54' W 079°00'2221.5 1012.0
2014-Jul-22 08:00S 09°36' W 079°12'1313.4 1012.0
2014-Jul-22 07:00S 09°24' W 079°18'2221.5 1012.6
2014-Jul-22 06:00S 09°06' W 079°30'1313.4 1012.6
2014-Jul-22 05:00S 08°54' W 079°36'2221.6 1012.9
2014-Jul-22 04:00S 08°36' W 079°48'1313.4 1012.7
2014-Jul-22 03:00S 08°24' W 079°54'1716.9 1012.8
2014-Jul-22 02:00S 08°12' W 080°06'1919.0 1012.5
2014-Jul-22 01:00S 07°54' W 080°12'1716.9 1011.7
2014-Jul-22 00:00S 07°42' W 080°24'1313.4 1011.0
2014-Jul-21 23:00S 07°30' W 080°30'2221.6 1010.4
2014-Jul-21 22:00S 07°12' W 080°42'1716.9 1010.2
2014-Jul-21 21:00S 07°00' W 080°54'1919.0 1010.4
2014-Jul-21 20:00S 06°42' W 081°00'1313.4 1010.7
2014-Jul-21 19:00S 06°30' W 081°06'6 3.0 1012.2
2014-Jul-21 17:00S 06°36' W 081°06'0 0.0 1014.3
2014-Jul-21 16:00S 06°36' W 081°06'0 0.0 1015.3
2014-Jul-21 15:00S 06°36' W 081°06'6 2.0 1015.8
2014-Jul-21 12:00S 06°30' W 081°06'1716.9 1013.3
2014-Jul-21 11:00S 06°18' W 081°18'1919.0 1012.6
2014-Jul-21 10:00S 06°00' W 081°24'1313.4 1012.3
2014-Jul-21 09:00S 05°48' W 081°30'1818.0 1012.1
2014-Jul-21 08:00S 05°30' W 081°30'1818.0 1012.3
2014-Jul-21 07:00S 05°12' W 081°30'1818.0 1012.6
2014-Jul-21 06:00S 04°54' W 081°30'1818.0 1013.1
2014-Jul-21 05:00S 04°36' W 081°30'1919.0 1013.4
2014-Jul-21 04:00S 04°18' W 081°36'1818.0 1013.3
2014-Jul-21 03:00S 04°00' W 081°36'1818.0 1013.2
2014-Jul-21 02:00S 03°42' W 081°36'1818.0 1013.1
2014-Jul-21 01:00S 03°24' W 081°36'1313.4 1012.6
2014-Jul-21 00:00S 03°12' W 081°30'1818.0 1012.0
2014-Jul-20 23:00S 02°54' W 081°30'1818.0 1011.8
2014-Jul-20 22:00S 02°36' W 081°30'1818.0 1011.3
2014-Jul-20 21:00S 02°18' W 081°30'1313.4 1011.2
2014-Jul-20 20:00S 02°06' W 081°36'0 0.0 1011.5
2014-Jul-20 19:00S 02°06' W 081°36'6 3.0 1012.0
2014-Jul-20 17:00S 02°06' W 081°30'6 6.0 1013.5
2014-Jul-20 16:00S 02°12' W 081°30'0 0.0 1014.3
2014-Jul-20 15:00S 02°12' W 081°30'0 0.0 1014.6
2014-Jul-20 13:00S 02°12' W 081°30'1818.0 1014.1
2014-Jul-20 12:00S 01°54' W 081°30'1919.0 1013.4
2014-Jul-20 11:00S 01°36' W 081°24'1818.0 1012.8
2014-Jul-20 10:00S 01°18' W 081°24'1919.0 1012.2
2014-Jul-20 09:00S 01°00' W 081°18'1818.0 1012.1
2014-Jul-20 08:00S 00°42' W 081°18'1919.0 1011.8
2014-Jul-20 07:00S 00°24' W 081°12'3618.2 1012.0
2014-Jul-20 05:00N 00°12' W 081°06'1919.0 1012.5
2014-Jul-20 04:00N 00°30' W 081°00'1818.0 1012.3
2014-Jul-20 03:00N 00°48' W 081°00'1919.0 1012.4
2014-Jul-20 02:00N 01°06' W 080°54'1818.0 1012.4
2014-Jul-20 01:00N 01°24' W 080°54'1313.4 1011.3
2014-Jul-20 00:00N 01°36' W 080°48'1818.0 1010.5
2014-Jul-19 23:00N 01°54' W 080°48'1919.0 1009.7
2014-Jul-19 22:00N 02°12' W 080°42'1818.0 1009.0
2014-Jul-19 21:00N 02°30' W 080°42'1919.0 1008.9
2014-Jul-19 20:00N 02°48' W 080°36'1818.0 1009.1
2014-Jul-19 19:00N 03°06' W 080°36'1313.4 1009.7
2014-Jul-19 18:00N 03°18' W 080°30'1818.0 1010.9
2014-Jul-19 17:00N 03°36' W 080°30'3819.0 1011.2
2014-Jul-19 15:00N 04°12' W 080°18'3618.2 1010.9
2014-Jul-19 13:00N 04°48' W 080°12'1818.0 1011.2
2014-Jul-19 12:00N 05°06' W 080°12'1919.0 1010.6
2014-Jul-19 11:00N 05°24' W 080°06'1818.0 1010.4
2014-Jul-19 10:00N 05°42' W 080°06'1919.0 1009.7
2014-Jul-19 09:00N 06°00' W 080°00'3618.2 1009.7
2014-Jul-19 07:00N 06°36' W 079°54'1919.0 1011.0
2014-Jul-19 06:00N 06°54' W 079°48'2424.0 1011.1
2014-Jul-19 05:00N 07°18' W 079°48'1919.0 1011.7
2014-Jul-19 04:00N 07°36' W 079°42'3618.2 1011.2
2014-Jul-19 02:00N 08°12' W 079°36'1919.0 1010.2
2014-Jul-19 01:00N 08°30' W 079°30'1818.0 1010.3
2014-Jul-19 00:00N 08°48' W 079°30'1313.4 1009.2
2014-Jul-18 23:00N 09°00' W 079°36'0 0.0 1009.9
2014-Jul-18 22:00N 09°00' W 079°36'0 0.0 1007.8
2014-Jul-18 20:00N 09°00' W 079°36'8 8.4 1007.9
2014-Jul-18 19:00N 09°06' W 079°42'6 5.9 1008.7
2014-Jul-18 18:00N 09°06' W 079°48'8 4.2 1010.8
2014-Jul-18 16:00N 09°12' W 079°54'6 3.0 1012.4
2014-Jul-18 14:00N 09°18' W 079°54'0 0.0 1014.0
2014-Jul-18 13:00N 09°18' W 079°54'6 6.0 1013.4
2014-Jul-18 12:00N 09°24' W 079°54'0 0.0 1012.6
2014-Jul-17 11:00N 09°24' W 079°54'0 0.0 1011.5
2014-Jul-17 10:00N 09°24' W 079°54'0 0.0 1011.6
2014-Jul-16 14:00N 09°24' W 079°54'1313.4 1012.5
2014-Jul-16 13:00N 09°36' W 079°48'1313.3 1012.3
2014-Jul-16 12:00N 09°42' W 079°36'1918.7 1012.2
2014-Jul-16 11:00N 09°48' W 079°18'1817.7 1012.0
2014-Jul-16 10:00N 09°48' W 079°00'1918.7 1011.7
2014-Jul-16 09:00N 09°54' W 078°42'1817.7 1011.8
2014-Jul-16 08:00N 09°54' W 078°24'1817.7 1011.6
2014-Jul-16 07:00N 09°54' W 078°06'1918.7 1011.4
2014-Jul-16 06:00N 10°00' W 077°48'1817.7 1011.4
2014-Jul-16 05:00N 10°00' W 077°30'1918.7 1011.5
2014-Jul-16 04:00N 10°06' W 077°12'1817.7 1011.8
2014-Jul-16 03:00N 10°06' W 076°54'1918.7 1011.6
2014-Jul-16 02:00N 10°12' W 076°36'1817.7 1011.3
2014-Jul-16 01:00N 10°12' W 076°18'1918.7 1010.6
2014-Jul-16 00:00N 10°18' W 076°00'1817.7 1009.8
2014-Jul-15 23:00N 10°18' W 075°42'1313.2 1009.3
2014-Jul-15 22:00N 10°24' W 075°30'   1009.2
Track history (hours):
 
Tides and Currents Weather Stations Pressure Air Temp Water Temp Dewpoint Dewpoint Depression Visibility Wind Speed Wind Dir Waves Ship Positions

Callsign BAREU11 (name unknown)

Last reported at 2014-Jul-25 15:00 UTC. Time now 2014-Jul-25 16:08 UTC.
Position S 18°48' W 075°36'.

Barometer 1018.3 mb

Date/timePositionNaut miles runAvg speedWind from/ knotsBaromVisibWave heightAir tempDewpointWater temp
2014-Jul-25 15:00S 18°48' W 075°36'1918.9 1018.3
2014-Jul-25 14:00S 18°30' W 075°42'1818.0 1018.1
2014-Jul-25 13:00S 18°12' W 075°42'1918.9 1017.1
2014-Jul-25 12:00S 17°54' W 075°48'1918.9 1016.0
2014-Jul-25 11:00S 17°36' W 075°54'1918.9 1015.0
2014-Jul-25 10:00S 17°18' W 076°00'2524.7 1013.9
2014-Jul-25 09:00S 16°54' W 076°06'1918.9 1013.4
2014-Jul-25 08:00S 16°36' W 076°12'1918.9 1013.8
2014-Jul-25 07:00S 16°18' W 076°18'3618.2 1014.2
2014-Jul-25 05:00S 15°42' W 076°24'1918.9 1013.9
2014-Jul-25 04:00S 15°24' W 076°30'2524.7 1014.3
2014-Jul-25 03:00S 15°00' W 076°36'1818.0 1014.1
2014-Jul-25 02:00S 14°42' W 076°36'1918.9 1013.5
2014-Jul-25 01:00S 14°24' W 076°42'1918.9 1012.6
2014-Jul-25 00:00S 14°06' W 076°48'1918.9 1011.9
2014-Jul-24 23:00S 13°48' W 076°54'1918.9 1011.9
2014-Jul-24 22:00S 13°30' W 077°00'1918.9 1011.3
2014-Jul-24 21:00S 13°12' W 077°06'1818.0 1010.9
2014-Jul-24 20:00S 12°54' W 077°06'2524.7 1011.4
2014-Jul-24 19:00S 12°30' W 077°12'1918.9 1012.1
2014-Jul-24 18:00S 12°12' W 077°18'1313.4 1012.4
2014-Jul-24 17:00S 12°00' W 077°12'6 0.4 1013.6
2014-Jul-24 03:00S 12°00' W 077°06'0 0.0 1014.8
2014-Jul-23 22:00S 12°00' W 077°06'6 0.2 1013.1
2014-Jul-22 20:00S 12°00' W 077°12'6 5.9 1013.3
2014-Jul-22 19:00S 12°00' W 077°18'4615.4 1013.5
2014-Jul-22 16:00S 11°30' W 077°54'1716.8 1015.6
2014-Jul-22 15:00S 11°18' W 078°06'1313.4 1015.8
2014-Jul-22 14:00S 11°06' W 078°12'2221.5 1015.4
2014-Jul-22 13:00S 10°48' W 078°24'3517.4 1014.4
2014-Jul-22 11:00S 10°18' W 078°42'1313.4 1012.9
2014-Jul-22 10:00S 10°06' W 078°48'1716.8 1012.4
2014-Jul-22 09:00S 09°54' W 079°00'2221.5 1012.0
2014-Jul-22 08:00S 09°36' W 079°12'1313.4 1012.0
2014-Jul-22 07:00S 09°24' W 079°18'2221.5 1012.6
2014-Jul-22 06:00S 09°06' W 079°30'1313.4 1012.6
2014-Jul-22 05:00S 08°54' W 079°36'2221.6 1012.9
2014-Jul-22 04:00S 08°36' W 079°48'1313.4 1012.7
2014-Jul-22 03:00S 08°24' W 079°54'1716.9 1012.8
2014-Jul-22 02:00S 08°12' W 080°06'1919.0 1012.5
2014-Jul-22 01:00S 07°54' W 080°12'1716.9 1011.7
2014-Jul-22 00:00S 07°42' W 080°24'1313.4 1011.0
2014-Jul-21 23:00S 07°30' W 080°30'2221.6 1010.4
2014-Jul-21 22:00S 07°12' W 080°42'1716.9 1010.2
2014-Jul-21 21:00S 07°00' W 080°54'1919.0 1010.4
2014-Jul-21 20:00S 06°42' W 081°00'1313.4 1010.7
2014-Jul-21 19:00S 06°30' W 081°06'6 3.0 1012.2
2014-Jul-21 17:00S 06°36' W 081°06'0 0.0 1014.3
2014-Jul-21 16:00S 06°36' W 081°06'0 0.0 1015.3
2014-Jul-21 15:00S 06°36' W 081°06'6 2.0 1015.8
2014-Jul-21 12:00S 06°30' W 081°06'1716.9 1013.3
2014-Jul-21 11:00S 06°18' W 081°18'1919.0 1012.6
2014-Jul-21 10:00S 06°00' W 081°24'1313.4 1012.3
2014-Jul-21 09:00S 05°48' W 081°30'1818.0 1012.1
2014-Jul-21 08:00S 05°30' W 081°30'1818.0 1012.3
2014-Jul-21 07:00S 05°12' W 081°30'1818.0 1012.6
2014-Jul-21 06:00S 04°54' W 081°30'1818.0 1013.1
2014-Jul-21 05:00S 04°36' W 081°30'1919.0 1013.4
2014-Jul-21 04:00S 04°18' W 081°36'1818.0 1013.3
2014-Jul-21 03:00S 04°00' W 081°36'1818.0 1013.2
2014-Jul-21 02:00S 03°42' W 081°36'1818.0 1013.1
2014-Jul-21 01:00S 03°24' W 081°36'1313.4 1012.6
2014-Jul-21 00:00S 03°12' W 081°30'1818.0 1012.0
2014-Jul-20 23:00S 02°54' W 081°30'1818.0 1011.8
2014-Jul-20 22:00S 02°36' W 081°30'1818.0 1011.3
2014-Jul-20 21:00S 02°18' W 081°30'1313.4 1011.2
2014-Jul-20 20:00S 02°06' W 081°36'0 0.0 1011.5
2014-Jul-20 19:00S 02°06' W 081°36'6 3.0 1012.0
2014-Jul-20 17:00S 02°06' W 081°30'6 6.0 1013.5
2014-Jul-20 16:00S 02°12' W 081°30'0 0.0 1014.3
2014-Jul-20 15:00S 02°12' W 081°30'0 0.0 1014.6
2014-Jul-20 13:00S 02°12' W 081°30'1818.0 1014.1
2014-Jul-20 12:00S 01°54' W 081°30'1919.0 1013.4
2014-Jul-20 11:00S 01°36' W 081°24'1818.0 1012.8
2014-Jul-20 10:00S 01°18' W 081°24'1919.0 1012.2
2014-Jul-20 09:00S 01°00' W 081°18'1818.0 1012.1
2014-Jul-20 08:00S 00°42' W 081°18'1919.0 1011.8
2014-Jul-20 07:00S 00°24' W 081°12'3618.2 1012.0
2014-Jul-20 05:00N 00°12' W 081°06'1919.0 1012.5
2014-Jul-20 04:00N 00°30' W 081°00'1818.0 1012.3
2014-Jul-20 03:00N 00°48' W 081°00'1919.0 1012.4
2014-Jul-20 02:00N 01°06' W 080°54'1818.0 1012.4
2014-Jul-20 01:00N 01°24' W 080°54'1313.4 1011.3
2014-Jul-20 00:00N 01°36' W 080°48'1818.0 1010.5
2014-Jul-19 23:00N 01°54' W 080°48'1919.0 1009.7
2014-Jul-19 22:00N 02°12' W 080°42'1818.0 1009.0
2014-Jul-19 21:00N 02°30' W 080°42'1919.0 1008.9
2014-Jul-19 20:00N 02°48' W 080°36'1818.0 1009.1
2014-Jul-19 19:00N 03°06' W 080°36'1313.4 1009.7
2014-Jul-19 18:00N 03°18' W 080°30'1818.0 1010.9
2014-Jul-19 17:00N 03°36' W 080°30'3819.0 1011.2
2014-Jul-19 15:00N 04°12' W 080°18'3618.2 1010.9
2014-Jul-19 13:00N 04°48' W 080°12'1818.0 1011.2
2014-Jul-19 12:00N 05°06' W 080°12'1919.0 1010.6
2014-Jul-19 11:00N 05°24' W 080°06'1818.0 1010.4
2014-Jul-19 10:00N 05°42' W 080°06'1919.0 1009.7
2014-Jul-19 09:00N 06°00' W 080°00'3618.2 1009.7
2014-Jul-19 07:00N 06°36' W 079°54'1919.0 1011.0
2014-Jul-19 06:00N 06°54' W 079°48'2424.0 1011.1
2014-Jul-19 05:00N 07°18' W 079°48'1919.0 1011.7
2014-Jul-19 04:00N 07°36' W 079°42'3618.2 1011.2
2014-Jul-19 02:00N 08°12' W 079°36'1919.0 1010.2
2014-Jul-19 01:00N 08°30' W 079°30'1818.0 1010.3
2014-Jul-19 00:00N 08°48' W 079°30'1313.4 1009.2
2014-Jul-18 23:00N 09°00' W 079°36'0 0.0 1009.9
2014-Jul-18 22:00N 09°00' W 079°36'0 0.0 1007.8
2014-Jul-18 20:00N 09°00' W 079°36'8 8.4 1007.9
2014-Jul-18 19:00N 09°06' W 079°42'6 5.9 1008.7
2014-Jul-18 18:00N 09°06' W 079°48'8 4.2 1010.8
2014-Jul-18 16:00N 09°12' W 079°54'6 3.0 1012.4
2014-Jul-18 14:00N 09°18' W 079°54'0 0.0 1014.0
2014-Jul-18 13:00N 09°18' W 079°54'6 6.0 1013.4
2014-Jul-18 12:00N 09°24' W 079°54'0 0.0 1012.6
2014-Jul-17 11:00N 09°24' W 079°54'0 0.0 1011.5
2014-Jul-17 10:00N 09°24' W 079°54'0 0.0 1011.6
2014-Jul-16 14:00N 09°24' W 079°54'1313.4 1012.5
2014-Jul-16 13:00N 09°36' W 079°48'1313.3 1012.3
2014-Jul-16 12:00N 09°42' W 079°36'1918.7 1012.2
2014-Jul-16 11:00N 09°48' W 079°18'1817.7 1012.0
2014-Jul-16 10:00N 09°48' W 079°00'1918.7 1011.7
2014-Jul-16 09:00N 09°54' W 078°42'1817.7 1011.8
2014-Jul-16 08:00N 09°54' W 078°24'1817.7 1011.6
2014-Jul-16 07:00N 09°54' W 078°06'1918.7 1011.4
2014-Jul-16 06:00N 10°00' W 077°48'1817.7 1011.4
2014-Jul-16 05:00N 10°00' W 077°30'1918.7 1011.5
2014-Jul-16 04:00N 10°06' W 077°12'1817.7 1011.8
2014-Jul-16 03:00N 10°06' W 076°54'1918.7 1011.6
2014-Jul-16 02:00N 10°12' W 076°36'1817.7 1011.3
2014-Jul-16 01:00N 10°12' W 076°18'1918.7 1010.6
2014-Jul-16 00:00N 10°18' W 076°00'1817.7 1009.8
2014-Jul-15 23:00N 10°18' W 075°42'1313.2 1009.3
2014-Jul-15 22:00N 10°24' W 075°30'   1009.2

Dump ship's entire track history